createdAt,value
2022-08-26T00:00:34.405Z,7.43
2022-08-26T00:03:28.746Z,6.63
2022-08-26T00:09:08.106Z,6.80
2022-08-26T00:14:13.630Z,6.57
2022-08-26T00:16:57.005Z,7.90
2022-08-26T00:19:34.785Z,7.07
2022-08-26T00:24:51.091Z,6.93
2022-08-26T00:27:34.274Z,7.05
2022-08-26T00:30:13.260Z,7.40
2022-08-26T00:33:21.211Z,7.72
2022-08-26T00:36:09.115Z,7.05
2022-08-26T00:39:01.967Z,7.22
2022-08-26T00:41:38.820Z,7.50
2022-08-26T00:44:18.210Z,7.93
2022-08-26T00:47:03.313Z,7.13
2022-08-26T00:49:54.770Z,6.65
2022-08-26T00:53:03.230Z,7.70
2022-08-26T00:55:42.430Z,7.30
2022-08-26T00:58:43.326Z,7.45
2022-08-26T01:01:24.611Z,7.35
2022-08-26T01:04:06.561Z,7.80
2022-08-26T01:06:45.197Z,7.40
2022-08-26T01:09:44.253Z,7.25
2022-08-26T01:12:27.221Z,7.28
2022-08-26T01:15:32.899Z,7.75
2022-08-26T01:18:08.457Z,7.85
2022-08-26T01:20:57.954Z,8.50
2022-08-26T01:23:59.315Z,7.53
2022-08-26T01:26:59.523Z,7.80
2022-08-26T01:29:45.691Z,7.50
2022-08-26T01:32:25.292Z,7.57
2022-08-26T01:35:10.928Z,8.95
2022-08-26T01:37:51.209Z,8.30
2022-08-26T01:40:52.040Z,8.57
2022-08-26T01:43:42.680Z,7.47
2022-08-26T01:46:19.353Z,8.77
2022-08-26T01:49:14.721Z,8.88
2022-08-26T01:51:54.806Z,8.57
2022-08-26T01:57:40.557Z,8.75
2022-08-26T02:00:28.941Z,9.55
2022-08-26T02:03:20.510Z,8.80
2022-08-26T02:06:04.493Z,9.73
2022-08-26T02:08:50.503Z,9.48
2022-08-26T02:11:26.620Z,9.15
2022-08-26T02:14:04.481Z,9.18
2022-08-26T02:16:48.562Z,9.48
2022-08-26T02:19:36.256Z,10.05
2022-08-26T02:25:32.628Z,9.23
2022-08-26T02:28:12.400Z,9.63
2022-08-26T02:30:45.686Z,10.10
2022-08-26T02:33:25.356Z,9.55
2022-08-26T02:38:50.432Z,9.60
2022-08-26T02:42:05.597Z,10.60
2022-08-26T02:44:53.243Z,11.00
2022-08-26T02:48:12.905Z,10.77
2022-08-26T02:50:52.092Z,10.50
2022-08-26T02:53:31.943Z,10.15
2022-08-26T02:56:09.784Z,11.35
2022-08-26T02:58:40.816Z,10.27
2022-08-26T03:01:51.796Z,11.10
2022-08-26T03:04:57.779Z,9.95
2022-08-26T03:07:43.720Z,11.57
2022-08-26T03:10:22.566Z,11.35
2022-08-26T03:13:05.602Z,10.38
2022-08-26T03:15:38.806Z,11.18
2022-08-26T03:18:11.050Z,11.07
2022-08-26T03:20:56.349Z,12.25
2022-08-26T03:23:36.658Z,11.48
2022-08-26T03:29:33.179Z,10.07
2022-08-26T03:32:30.362Z,10.88
2022-08-26T03:38:02.011Z,12.10
2022-08-26T03:40:52.882Z,12.25
2022-08-26T03:43:28.454Z,11.32
2022-08-26T03:48:59.770Z,12.18
2022-08-26T03:51:38.939Z,12.48
2022-08-26T03:54:38.819Z,12.40
2022-08-26T03:57:18.345Z,11.10
2022-08-26T03:59:54.416Z,11.65
2022-08-26T04:02:27.309Z,12.07
2022-08-26T04:05:13.975Z,12.43
2022-08-26T04:08:08.087Z,12.45
2022-08-26T04:11:07.405Z,12.32
2022-08-26T04:13:54.613Z,13.05
2022-08-26T04:16:36.825Z,12.18
2022-08-26T04:19:08.693Z,13.98
2022-08-26T04:21:48.365Z,12.80
2022-08-26T04:27:18.469Z,13.57
2022-08-26T04:29:51.420Z,13.95
2022-08-26T04:32:28.903Z,14.32
2022-08-26T04:35:03.403Z,14.80
2022-08-26T04:37:35.457Z,13.18
2022-08-26T04:40:05.674Z,13.43
2022-08-26T04:42:34.998Z,15.23
2022-08-26T04:45:15.124Z,14.93
2022-08-26T04:47:48.991Z,13.27
2022-08-26T04:50:23.707Z,14.38
2022-08-26T04:52:52.263Z,15.20
2022-08-26T04:55:19.467Z,14.50
2022-08-26T04:57:47.408Z,15.32
2022-08-26T05:00:15.382Z,15.38
2022-08-26T05:02:42.617Z,13.82
2022-08-26T05:05:10.743Z,15.85
2022-08-26T05:07:38.449Z,17.85
2022-08-26T05:10:08.779Z,17.58
2022-08-26T05:12:36.134Z,18.17
2022-08-26T05:15:05.638Z,17.33
2022-08-26T05:17:33.556Z,21.80
2022-08-26T05:20:00.608Z,20.27
2022-08-26T05:22:27.792Z,20.13
2022-08-26T05:24:54.775Z,21.27
2022-08-26T05:27:26.858Z,21.63
2022-08-26T05:29:57.284Z,21.88
2022-08-26T05:32:24.662Z,24.73
2022-08-26T05:34:57.883Z,25.27
2022-08-26T05:37:25.446Z,24.50
2022-08-26T05:39:52.578Z,27.00
2022-08-26T05:42:20.017Z,29.42
2022-08-26T05:47:24.163Z,35.03
2022-08-26T05:49:51.502Z,40.05
2022-08-26T05:52:20.149Z,40.38
2022-08-26T05:57:15.049Z,42.20
2022-08-26T05:59:42.156Z,47.83
2022-08-26T06:02:09.879Z,51.17
2022-08-26T06:04:36.859Z,60.65
2022-08-26T06:07:03.839Z,57.20
2022-08-26T06:09:38.511Z,60.72
2022-08-26T06:12:06.041Z,69.07
2022-08-26T06:19:33.003Z,71.05
2022-08-26T06:22:23.564Z,67.90
2022-08-26T06:25:09.940Z,75.53
2022-08-26T06:27:37.171Z,62.83
2022-08-26T06:30:04.587Z,71.60
2022-08-26T06:32:31.834Z,79.78
2022-08-26T06:34:59.246Z,75.50
2022-08-26T06:37:26.329Z,108.22
2022-08-26T06:39:53.386Z,80.88
2022-08-26T06:42:20.444Z,91.63
2022-08-26T06:44:47.880Z,84.05
2022-08-26T06:47:15.150Z,84.68
2022-08-26T06:49:42.097Z,81.78
2022-08-26T06:52:11.834Z,83.93
2022-08-26T06:54:43.030Z,74.43
2022-08-26T06:57:11.581Z,89.97
2022-08-26T06:59:41.457Z,72.38
2022-08-26T07:02:13.532Z,77.03
2022-08-26T07:04:41.294Z,88.00
2022-08-26T07:07:09.745Z,85.28
2022-08-26T07:09:37.567Z,102.57
2022-08-26T07:12:06.810Z,59.70
2022-08-26T07:14:35.473Z,68.72
2022-08-26T07:17:02.863Z,61.20
2022-08-26T07:19:31.870Z,70.97
2022-08-26T07:22:05.423Z,65.50
2022-08-26T07:24:38.568Z,51.35
2022-08-26T07:27:08.910Z,49.58
2022-08-26T07:29:38.958Z,56.47
2022-08-26T07:32:07.583Z,54.33
2022-08-26T07:34:36.699Z,53.65
2022-08-26T07:37:05.308Z,52.13
2022-08-26T07:39:36.325Z,39.17
2022-08-26T07:42:07.878Z,49.45
2022-08-26T07:44:37.053Z,38.03
2022-08-26T07:47:10.579Z,40.45
2022-08-26T07:49:57.669Z,38.22
2022-08-26T07:52:28.113Z,40.08
2022-08-26T07:54:58.135Z,36.38
2022-08-26T07:57:26.776Z,41.55
2022-08-26T07:59:55.432Z,36.67
2022-08-26T08:02:24.141Z,33.58
2022-08-26T08:04:52.325Z,32.60
2022-08-26T08:07:19.774Z,36.60
2022-08-26T08:09:53.339Z,37.55
2022-08-26T08:12:21.697Z,37.85
2022-08-26T08:14:49.873Z,35.38
2022-08-26T08:17:17.139Z,35.13
2022-08-26T08:19:46.139Z,33.63
2022-08-26T08:22:17.953Z,44.17
2022-08-26T08:24:53.320Z,31.27
2022-08-26T08:27:23.820Z,42.83
2022-08-26T08:29:57.048Z,43.65
2022-08-26T08:32:28.760Z,33.10
2022-08-26T08:34:59.508Z,38.05
2022-08-26T08:37:26.818Z,35.08
2022-08-26T08:39:56.597Z,35.28
2022-08-26T08:45:49.573Z,33.15
2022-08-26T08:48:27.776Z,36.28
2022-08-26T08:51:13.935Z,37.92
2022-08-26T08:53:44.532Z,27.90
2022-08-26T08:56:23.877Z,34.10
2022-08-26T08:59:17.111Z,38.45
2022-08-26T09:02:20.695Z,32.85
2022-08-26T09:04:59.793Z,40.40
2022-08-26T09:07:37.579Z,31.73
2022-08-26T09:10:26.310Z,32.75
2022-08-26T09:12:57.395Z,33.50
2022-08-26T09:15:51.404Z,31.52
2022-08-26T09:18:40.745Z,32.42
2022-08-26T09:21:10.665Z,31.50
2022-08-26T09:23:41.850Z,30.27
2022-08-26T09:26:29.660Z,34.15
2022-08-26T09:29:03.933Z,35.95
2022-08-26T09:31:34.140Z,32.83
2022-08-26T09:34:20.749Z,32.92
2022-08-26T09:36:56.220Z,33.70
2022-08-26T09:39:34.300Z,32.90
2022-08-26T09:42:09.747Z,29.23
2022-08-26T09:45:07.630Z,30.83
2022-08-26T09:47:39.742Z,37.05
2022-08-26T09:50:18.871Z,40.08
2022-08-26T09:52:48.134Z,33.88
2022-08-26T09:55:21.998Z,30.92
2022-08-26T09:57:51.770Z,36.42
2022-08-26T10:00:27.365Z,30.58
2022-08-26T10:03:07.262Z,26.45
2022-08-26T10:05:44.018Z,27.75
2022-08-26T10:08:44.143Z,39.65
2022-08-26T10:11:37.586Z,29.58
2022-08-26T10:14:22.584Z,26.60
2022-08-26T10:17:22.125Z,31.17
2022-08-26T10:19:57.849Z,28.25
2022-08-26T10:22:35.022Z,27.33
2022-08-26T10:25:05.561Z,33.97
2022-08-26T10:27:53.636Z,41.60
2022-08-26T10:30:33.545Z,27.85
2022-08-26T10:33:12.295Z,25.55
2022-08-26T10:36:03.228Z,28.20
2022-08-26T10:38:35.601Z,21.67
2022-08-26T10:41:20.315Z,25.23
2022-08-26T10:43:58.603Z,31.00
2022-08-26T10:46:30.315Z,30.48
2022-08-26T10:49:10.548Z,33.97
2022-08-26T10:52:15.174Z,33.38
2022-08-26T10:55:15.938Z,29.80
2022-08-26T10:58:07.303Z,25.00
2022-08-26T11:01:10.819Z,24.05
2022-08-26T11:03:46.670Z,30.50
2022-08-26T11:06:19.792Z,29.30
2022-08-26T11:08:56.986Z,33.30
2022-08-26T11:11:42.643Z,31.95
2022-08-26T11:14:28.892Z,24.65
2022-08-26T11:19:45.615Z,27.02
2022-08-26T11:22:38.093Z,23.02
2022-08-26T11:25:30.044Z,28.10
2022-08-26T11:28:01.085Z,23.40
2022-08-26T11:30:36.833Z,25.80
2022-08-26T11:33:06.090Z,30.90
2022-08-26T11:35:39.217Z,30.10
2022-08-26T11:38:21.529Z,27.13
2022-08-26T11:41:06.118Z,22.65
2022-08-26T11:43:34.366Z,20.65
2022-08-26T11:46:11.778Z,23.80
2022-08-26T11:48:43.525Z,23.98
2022-08-26T11:51:23.175Z,28.00
2022-08-26T11:53:51.290Z,27.42
2022-08-26T11:56:28.759Z,31.40
2022-08-26T11:59:04.253Z,28.35
2022-08-26T12:01:35.810Z,20.02
2022-08-26T12:04:05.770Z,20.33
2022-08-26T12:06:43.358Z,23.13
2022-08-26T12:09:20.950Z,23.42
2022-08-26T12:11:48.105Z,30.52
2022-08-26T12:14:27.733Z,24.48
2022-08-26T12:16:55.611Z,28.27
2022-08-26T12:19:27.452Z,27.90
2022-08-26T12:22:23.693Z,29.23
2022-08-26T12:24:54.553Z,28.00
2022-08-26T12:27:31.354Z,28.13
2022-08-26T12:32:57.377Z,33.25
2022-08-26T12:35:28.661Z,22.25
2022-08-26T12:37:57.641Z,30.98
2022-08-26T12:40:45.727Z,20.65
2022-08-26T12:43:34.308Z,25.85
2022-08-26T12:46:01.631Z,24.15
2022-08-26T12:48:38.977Z,23.90
2022-08-26T12:51:21.944Z,21.40
2022-08-26T12:53:49.106Z,19.42
2022-08-26T12:59:27.629Z,21.45
2022-08-26T13:01:55.053Z,20.33
2022-08-26T13:04:43.807Z,27.17
2022-08-26T13:07:26.234Z,23.50
2022-08-26T13:09:56.299Z,19.60
2022-08-26T13:12:30.166Z,18.98
2022-08-26T13:14:58.947Z,18.83
2022-08-26T13:17:27.860Z,25.23
2022-08-26T13:19:58.951Z,20.42
2022-08-26T13:22:29.370Z,22.30
2022-08-26T13:24:57.085Z,21.40
2022-08-26T13:27:26.361Z,17.55
2022-08-26T13:29:54.137Z,19.73
2022-08-26T13:32:22.498Z,19.50
2022-08-26T13:35:13.338Z,16.55
2022-08-26T13:37:40.374Z,19.83
2022-08-26T13:40:13.450Z,15.70
2022-08-26T13:42:43.002Z,16.58
2022-08-26T13:45:17.512Z,17.67
2022-08-26T13:47:44.742Z,15.07
2022-08-26T13:50:14.873Z,21.52
2022-08-26T13:52:44.634Z,16.23
2022-08-26T13:55:15.837Z,13.10
2022-08-26T13:57:42.958Z,16.10
2022-08-26T14:02:43.215Z,11.50
2022-08-26T14:05:19.188Z,13.77
2022-08-26T14:07:53.926Z,15.83
2022-08-26T14:10:21.868Z,10.85
2022-08-26T14:12:51.688Z,10.73
2022-08-26T14:18:06.633Z,11.43
2022-08-26T14:20:37.329Z,11.90
2022-08-26T14:23:13.582Z,9.05
2022-08-26T14:25:41.457Z,10.52
2022-08-26T14:28:08.543Z,11.30
2022-08-26T14:30:37.187Z,9.13
2022-08-26T14:33:04.266Z,10.68
2022-08-26T14:37:58.535Z,9.75
2022-08-26T14:40:30.351Z,8.23
2022-08-26T14:42:58.643Z,7.35
2022-08-26T14:45:27.348Z,8.02
2022-08-26T14:47:58.730Z,7.45
2022-08-26T14:50:26.601Z,6.38
2022-08-26T14:53:12.382Z,6.85
2022-08-26T14:55:41.522Z,4.23
2022-08-26T14:58:09.777Z,8.00
2022-08-26T15:00:37.514Z,7.15
2022-08-26T15:03:05.601Z,6.03
2022-08-26T15:05:33.897Z,6.47
2022-08-26T15:08:02.234Z,7.28
2022-08-26T15:10:29.427Z,6.57
2022-08-26T15:12:56.281Z,7.88
2022-08-26T15:15:24.670Z,7.03
2022-08-26T15:17:51.685Z,6.28
2022-08-26T15:20:18.904Z,6.47
2022-08-26T15:22:46.047Z,5.35
2022-08-26T15:25:14.483Z,5.05
2022-08-26T15:27:41.518Z,6.30
2022-08-26T15:32:38.019Z,4.93
2022-08-26T15:35:09.037Z,6.32
2022-08-26T15:37:37.131Z,5.88
2022-08-26T15:40:05.102Z,6.25
2022-08-26T15:42:32.160Z,7.20
2022-08-26T15:44:59.516Z,4.32
2022-08-26T15:47:26.766Z,5.07
2022-08-26T15:49:58.906Z,5.30
2022-08-26T15:52:26.163Z,5.93
2022-08-26T15:57:20.174Z,5.45
2022-08-26T16:02:17.558Z,5.93
2022-08-26T16:04:44.586Z,5.20
2022-08-26T16:07:12.863Z,5.07
2022-08-26T16:09:39.848Z,4.35
2022-08-26T16:12:09.607Z,5.05
2022-08-26T16:14:36.584Z,5.10
2022-08-26T16:17:03.729Z,6.22
2022-08-26T16:19:30.624Z,5.90
2022-08-26T16:21:57.498Z,4.72
2022-08-26T16:24:30.090Z,5.57
2022-08-26T16:26:57.824Z,5.60
2022-08-26T16:29:24.945Z,5.45
2022-08-26T16:31:54.682Z,6.45
2022-08-26T16:34:22.496Z,5.60
2022-08-26T16:36:49.615Z,5.78
2022-08-26T16:39:16.568Z,5.65
2022-08-26T16:44:12.195Z,5.18
2022-08-26T16:46:39.753Z,6.90
2022-08-26T16:49:06.888Z,6.60
2022-08-26T16:51:34.850Z,6.22
2022-08-26T16:54:07.056Z,5.97
2022-08-26T16:56:37.640Z,4.90
2022-08-26T16:59:07.744Z,6.47
2022-08-26T17:01:35.077Z,5.03
2022-08-26T17:04:02.190Z,5.00
2022-08-26T17:06:29.820Z,4.80
2022-08-26T17:08:56.833Z,5.35
2022-08-26T17:11:23.926Z,4.53
2022-08-26T17:13:53.843Z,4.80
2022-08-26T17:16:26.410Z,4.28
2022-08-26T17:18:55.827Z,3.92
2022-08-26T17:21:28.349Z,3.83
2022-08-26T17:23:56.400Z,4.15
2022-08-26T17:26:23.454Z,4.50
2022-08-26T17:28:50.472Z,3.58
2022-08-26T17:31:17.825Z,4.75
2022-08-26T17:33:48.854Z,4.00
2022-08-26T17:36:20.289Z,3.45
2022-08-26T17:38:52.469Z,4.68
2022-08-26T17:41:21.564Z,4.20
2022-08-26T17:43:48.719Z,4.03
2022-08-26T17:46:15.827Z,3.70
2022-08-26T17:48:42.853Z,4.00
2022-08-26T17:51:15.045Z,4.05
2022-08-26T17:53:42.722Z,4.00
2022-08-26T17:56:14.804Z,5.47
2022-08-26T17:58:47.988Z,4.18
2022-08-26T18:01:19.547Z,4.05
2022-08-26T18:03:46.723Z,3.33
2022-08-26T18:06:14.589Z,4.05
2022-08-26T18:08:42.275Z,4.88
2022-08-26T18:11:16.316Z,3.60
2022-08-26T18:13:47.252Z,3.35
2022-08-26T18:16:15.462Z,4.20
2022-08-26T18:18:43.000Z,4.43
2022-08-26T18:21:19.174Z,4.20
2022-08-26T18:23:46.954Z,4.43
2022-08-26T18:26:25.289Z,2.60
2022-08-26T18:28:53.224Z,5.35
2022-08-26T18:31:20.661Z,3.40
2022-08-26T18:33:47.554Z,3.03
2022-08-26T18:36:37.895Z,3.70
2022-08-26T18:39:06.797Z,3.60
2022-08-26T18:41:39.391Z,3.80
2022-08-26T18:44:08.535Z,3.65
2022-08-26T18:46:37.815Z,4.40
2022-08-26T18:51:34.466Z,4.45
2022-08-26T18:54:03.920Z,3.22
2022-08-26T18:56:31.217Z,5.40
2022-08-26T19:01:28.290Z,3.40
2022-08-26T19:03:57.029Z,4.28
2022-08-26T19:06:26.641Z,3.75
2022-08-26T19:08:53.940Z,3.90
2022-08-26T19:11:31.371Z,4.03
2022-08-26T19:13:58.988Z,4.45
2022-08-26T19:16:27.148Z,3.60
2022-08-26T19:18:56.644Z,3.33
2022-08-26T19:21:24.304Z,4.10
2022-08-26T19:23:51.989Z,3.20
2022-08-26T19:26:19.233Z,4.00
2022-08-26T19:31:12.968Z,3.78
2022-08-26T19:33:42.811Z,4.53
2022-08-26T19:36:15.220Z,3.80
2022-08-26T19:38:42.844Z,3.83
2022-08-26T19:41:14.957Z,3.65
2022-08-26T19:43:42.674Z,4.78
2022-08-26T19:46:12.690Z,4.80
2022-08-26T19:48:43.892Z,4.72
2022-08-26T19:51:15.971Z,3.88
2022-08-26T19:53:44.594Z,4.38
2022-08-26T19:56:13.158Z,4.35
2022-08-26T19:58:41.302Z,4.50
2022-08-26T20:01:09.160Z,4.45
2022-08-26T20:03:37.746Z,4.68
2022-08-26T20:06:07.040Z,4.65
2022-08-26T20:08:35.342Z,4.68
2022-08-26T20:11:10.087Z,6.03
2022-08-26T20:13:37.141Z,5.47
2022-08-26T20:16:04.910Z,4.28
2022-08-26T20:18:50.527Z,4.70
2022-08-26T20:21:26.237Z,4.82
2022-08-26T20:24:00.588Z,4.90
2022-08-26T20:26:29.869Z,4.57
2022-08-26T20:28:57.478Z,5.50
2022-08-26T20:31:25.734Z,3.80
2022-08-26T20:33:53.518Z,4.90
2022-08-26T20:36:22.883Z,4.00
2022-08-26T20:38:50.604Z,4.78
2022-08-26T20:41:18.463Z,3.83
2022-08-26T20:43:46.437Z,4.15
2022-08-26T20:46:18.022Z,4.47
2022-08-26T20:48:45.954Z,3.28
2022-08-26T20:51:12.818Z,3.30
2022-08-26T20:53:40.153Z,5.10
2022-08-26T20:58:37.635Z,5.53
2022-08-26T21:01:07.973Z,4.40
2022-08-26T21:03:36.572Z,4.22
2022-08-26T21:06:03.875Z,4.90
2022-08-26T21:11:01.974Z,4.70
2022-08-26T21:13:42.891Z,4.35
2022-08-26T21:16:19.469Z,4.00
2022-08-26T21:18:47.123Z,4.60
2022-08-26T21:21:14.122Z,5.07
2022-08-26T21:23:41.268Z,5.28
2022-08-26T21:26:11.713Z,4.10
2022-08-26T21:28:41.025Z,4.32
2022-08-26T21:31:14.586Z,4.55
2022-08-26T21:33:42.317Z,5.13
2022-08-26T21:36:10.436Z,5.63
2022-08-26T21:38:38.243Z,4.40
2022-08-26T21:41:19.349Z,4.45
2022-08-26T21:43:48.342Z,5.10
2022-08-26T21:46:19.691Z,6.80
2022-08-26T21:48:50.877Z,6.65
2022-08-26T21:51:20.981Z,5.80
2022-08-26T21:53:48.315Z,6.60
2022-08-26T21:58:44.569Z,5.38
2022-08-26T22:01:19.124Z,5.40
2022-08-26T22:03:47.507Z,5.60
2022-08-26T22:06:20.851Z,6.03
2022-08-26T22:08:47.895Z,4.75
2022-08-26T22:11:15.795Z,5.50
2022-08-26T22:13:43.775Z,5.35
2022-08-26T22:16:11.339Z,5.28
2022-08-26T22:18:39.229Z,5.90
2022-08-26T22:21:09.260Z,6.80
2022-08-26T22:23:38.062Z,7.47
2022-08-26T22:26:09.106Z,6.45
2022-08-26T22:28:36.663Z,7.80
2022-08-26T22:31:03.443Z,6.75
2022-08-26T22:33:30.419Z,6.25
2022-08-26T22:35:57.553Z,8.23
2022-08-26T22:38:24.950Z,7.90
2022-08-26T22:41:06.585Z,6.72
2022-08-26T22:43:38.230Z,6.13
2022-08-26T22:46:09.444Z,6.93
2022-08-26T22:48:38.235Z,5.80
2022-08-26T22:51:05.447Z,5.97
2022-08-26T22:53:32.722Z,6.03
2022-08-26T22:56:03.478Z,5.90
2022-08-26T22:58:31.339Z,6.15
2022-08-26T23:00:59.295Z,6.97
2022-08-26T23:03:26.869Z,5.80
2022-08-26T23:08:23.215Z,6.45
2022-08-26T23:10:50.674Z,6.38
2022-08-26T23:13:18.331Z,7.78
2022-08-26T23:15:46.494Z,6.65
2022-08-26T23:18:15.202Z,6.65
2022-08-26T23:20:42.269Z,6.25
2022-08-26T23:23:09.499Z,7.05
2022-08-26T23:25:36.505Z,5.93
2022-08-26T23:28:04.023Z,5.15
2022-08-26T23:30:32.890Z,7.15
2022-08-26T23:33:00.397Z,7.88
2022-08-26T23:37:54.669Z,9.68
2022-08-26T23:40:32.636Z,8.35
2022-08-26T23:43:03.235Z,11.00
2022-08-26T23:45:31.588Z,8.02
2022-08-26T23:47:59.066Z,10.23
2022-08-26T23:50:48.050Z,10.75
2022-08-26T23:53:21.667Z,8.90
2022-08-26T23:55:50.937Z,8.50
2022-08-26T23:58:19.864Z,9.43
